Wellfleet, NE (69170)

3:43 PM CDT on September 29, 2016 (GMT -0500)
Sagebrush | | Change Station

Elev 3018 ft 41.06 °N, 100.76 °W | Updated 6 seconds ago

Clear
Clear
70.5 °F
Feels Like 77 °F
N
9.8
Wind Variable Wind from ESE
Gusts 12.3 mph

Today
High -- | Low -- °F
--% Chance of Precip.
Yesterday
High -- | Low -- °F
Precip. -- in
Pressure 30.32 in
Visibility 10.0 miles
Clouds Clear
Heat Index 77 °F
Dew Point 52 °F
Humidity 51%
Rainfall 0.00 in
Snow Depth Not available.
7:38 AM 7:27 PM
Waning Crescent, 1% visible
METAR KLBF 291953Z AUTO 14007G15KT 10SM CLR 23/05 A3034 RMK AO2 SLP266 T02330050
Pressure 30.32 in
Visibility 10.0 miles
Clouds Clear
Heat Index 77 °F
Dew Point 52 °F
Humidity 51%
Rainfall 0.00 in
Snow Depth Not available.
7:38 AM 7:27 PM
Waning Crescent, 1% visible
METAR KLBF 291953Z AUTO 14007G15KT 10SM CLR 23/05 A3034 RMK AO2 SLP266 T02330050

10-Day Weather Forecast

Almanac

Astronomy

Sep. 29, 2016 Rise Set
Actual Time
Civil Twilight
Nautical Twilight
Astronomical Twilight
Moon
Length of Visible Light
Length of Day
Tomorrow will be .
, % of the Moon is Illuminated

Today's Extremes

State Highs State Lows

Community

WunderPhotos

Upload Photos

1,942,564 photos uploaded!

WunderBlog® & News

Nearby

Air Quality

  Air Quality AQ Index Pollutant
Not available.

Snow Depth

Station Depth Elevation

Earthquake Activity

City Distance Mag. Time & Date
Minimum magnitude displayed is 2.5.

Coastal Water Temperatures

Place Temperature

Stations

Nearby Weather Stations

Station Location Temp. Windchill Dew Point Humidity Wind Precip. Elev Updated Type
                   

Watches & Warnings

There are currently no watches in effect.